Clifford Maersk — OYRO2 — position and weather

sailwx.info

Track history (hours):
 
Tides and Currents Weather Stations Pressure Air Temp Water Temp Dewpoint Dewpoint Depression Visibility Wind Speed Wind Dir Waves Ship Positions

Clifford Maersk

Last reported at 2016-Aug-04 22:31 UTC. Time now 2016-Aug-27 04:45 UTC.
Position N 28°13' W 118°48'.
Warning: this ship's position is 22 days out of date.

Type: Ship (hazmat cat A). MMSI: 219840000.

Date/timePositionNaut miles runAvg speedWind from/ knotsBaromVisibWave heightAir tempDewpointWater temp
2016-Aug-04 22:31N 28°13' W 118°48'3819.6
2016-Aug-04 20:33N 28°37' W 119°21'2019.6
2016-Aug-04 19:31N 28°50' W 119°39'1919.6
2016-Aug-04 18:31N 29°02' W 119°56'2019.6
2016-Aug-04 17:31N 29°15' W 120°14'1919.6
2016-Aug-04 16:33N 29°27' W 120°31'2019.5
2016-Aug-04 15:33N 29°39' W 120°48'3919.6
2016-Aug-04 13:33N 30°04' W 121°23'2819.6
2016-Aug-04 12:07N 30°22' W 121°48'1119.6
2016-Aug-04 11:33N 30°29' W 121°58'2019.7
2016-Aug-04 10:33N 30°41' W 122°16'2019.8
2016-Aug-04 09:33N 30°53' W 122°34'2019.7
2016-Aug-04 08:33N 31°06' W 122°52'2019.6
2016-Aug-04 07:33N 31°18' W 123°10'2019.7
2016-Aug-04 06:33N 31°30' W 123°28'3919.5
2016-Aug-04 04:33N 31°55' W 124°04'2019.7
2016-Aug-04 03:33N 32°07' W 124°22'2019.7
2016-Aug-04 02:33N 32°19' W 124°40'2019.5
2016-Aug-04 01:33N 32°30' W 124°59'4819.3
2016-Aug-03 23:05N 32°60' W 125°44'1319.3
2016-Aug-03 22:24N 33°08' W 125°56'  
Track history (hours):
 
Tides and Currents Weather Stations Pressure Air Temp Water Temp Dewpoint Dewpoint Depression Visibility Wind Speed Wind Dir Waves Ship Positions

Clifford Maersk

Last reported at 2016-Aug-04 22:31 UTC. Time now 2016-Aug-27 04:45 UTC.
Position N 28°13' W 118°48'.
Warning: this ship's position is 22 days out of date.

Type: Ship (hazmat cat A). MMSI: 219840000.

Date/timePositionNaut miles runAvg speedWind from/ knotsBaromVisibWave heightAir tempDewpointWater temp
2016-Aug-04 22:31N 28°13' W 118°48'3819.6
2016-Aug-04 20:33N 28°37' W 119°21'2019.6
2016-Aug-04 19:31N 28°50' W 119°39'1919.6
2016-Aug-04 18:31N 29°02' W 119°56'2019.6
2016-Aug-04 17:31N 29°15' W 120°14'1919.6
2016-Aug-04 16:33N 29°27' W 120°31'2019.5
2016-Aug-04 15:33N 29°39' W 120°48'3919.6
2016-Aug-04 13:33N 30°04' W 121°23'2819.6
2016-Aug-04 12:07N 30°22' W 121°48'1119.6
2016-Aug-04 11:33N 30°29' W 121°58'2019.7
2016-Aug-04 10:33N 30°41' W 122°16'2019.8
2016-Aug-04 09:33N 30°53' W 122°34'2019.7
2016-Aug-04 08:33N 31°06' W 122°52'2019.6
2016-Aug-04 07:33N 31°18' W 123°10'2019.7
2016-Aug-04 06:33N 31°30' W 123°28'3919.5
2016-Aug-04 04:33N 31°55' W 124°04'2019.7
2016-Aug-04 03:33N 32°07' W 124°22'2019.7
2016-Aug-04 02:33N 32°19' W 124°40'2019.5
2016-Aug-04 01:33N 32°30' W 124°59'4819.3
2016-Aug-03 23:05N 32°60' W 125°44'1319.3
2016-Aug-03 22:24N 33°08' W 125°56'  

Dump ship's entire track history